sensor_id;sensor_type;location;lat;lon;timestamp;P1;durP1;ratioP1;P2;durP2;ratioP2
10275;SDS011;5183;51.190;6.820;2023-02-17T00:01:09;17.00;;;13.37;;
10275;SDS011;5183;51.190;6.820;2023-02-17T00:03:37;16.97;;;13.53;;
10275;SDS011;5183;51.190;6.820;2023-02-17T00:06:04;17.27;;;12.93;;
10275;SDS011;5183;51.190;6.820;2023-02-17T00:08:32;16.17;;;13.40;;
10275;SDS011;5183;51.190;6.820;2023-02-17T00:10:59;18.53;;;13.83;;
10275;SDS011;5183;51.190;6.820;2023-02-17T00:13:26;15.93;;;13.53;;
10275;SDS011;5183;51.190;6.820;2023-02-17T00:15:54;16.97;;;12.77;;
10275;SDS011;5183;51.190;6.820;2023-02-17T00:18:21;17.13;;;13.20;;
10275;SDS011;5183;51.190;6.820;2023-02-17T00:20:48;15.27;;;12.87;;
10275;SDS011;5183;51.190;6.820;2023-02-17T00:23:15;17.53;;;13.50;;
10275;SDS011;5183;51.190;6.820;2023-02-17T00:25:43;17.07;;;12.80;;
10275;SDS011;5183;51.190;6.820;2023-02-17T00:28:10;18.30;;;13.53;;
10275;SDS011;5183;51.190;6.820;2023-02-17T00:30:39;19.47;;;12.70;;
10275;SDS011;5183;51.190;6.820;2023-02-17T00:33:14;15.90;;;12.67;;
10275;SDS011;5183;51.190;6.820;2023-02-17T00:35:41;17.10;;;12.87;;
10275;SDS011;5183;51.190;6.820;2023-02-17T00:38:08;15.53;;;12.73;;
10275;SDS011;5183;51.190;6.820;2023-02-17T00:40:34;14.63;;;12.33;;
10275;SDS011;5183;51.190;6.820;2023-02-17T00:43:02;15.60;;;12.07;;
10275;SDS011;5183;51.190;6.820;2023-02-17T00:45:29;15.77;;;12.23;;
10275;SDS011;5183;51.190;6.820;2023-02-17T00:47:56;13.50;;;12.10;;
10275;SDS011;5183;51.190;6.820;2023-02-17T00:50:24;14.27;;;12.17;;
10275;SDS011;5183;51.190;6.820;2023-02-17T00:52:51;15.73;;;11.67;;
10275;SDS011;5183;51.190;6.820;2023-02-17T00:55:18;14.13;;;12.00;;
10275;SDS011;5183;51.190;6.820;2023-02-17T00:57:45;16.60;;;11.80;;
10275;SDS011;5183;51.190;6.820;2023-02-17T01:00:12;13.47;;;12.10;;
10275;SDS011;5183;51.190;6.820;2023-02-17T01:02:39;15.93;;;12.63;;
10275;SDS011;5183;51.190;6.820;2023-02-17T01:05:06;13.50;;;11.87;;
10275;SDS011;5183;51.190;6.820;2023-02-17T01:07:35;15.07;;;12.00;;
10275;SDS011;5183;51.190;6.820;2023-02-17T01:10:02;15.70;;;12.17;;
10275;SDS011;5183;51.190;6.820;2023-02-17T01:12:30;13.70;;;12.30;;
10275;SDS011;5183;51.190;6.820;2023-02-17T01:14:57;16.33;;;12.77;;
10275;SDS011;5183;51.190;6.820;2023-02-17T01:17:24;14.27;;;12.13;;
10275;SDS011;5183;51.190;6.820;2023-02-17T01:19:50;14.17;;;11.93;;
10275;SDS011;5183;51.190;6.820;2023-02-17T01:22:17;13.93;;;12.43;;
10275;SDS011;5183;51.190;6.820;2023-02-17T01:24:45;14.83;;;11.93;;
10275;SDS011;5183;51.190;6.820;2023-02-17T01:27:12;15.00;;;12.23;;
10275;SDS011;5183;51.190;6.820;2023-02-17T01:29:39;13.83;;;12.33;;
10275;SDS011;5183;51.190;6.820;2023-02-17T01:32:06;15.93;;;13.03;;
10275;SDS011;5183;51.190;6.820;2023-02-17T01:34:33;14.20;;;12.13;;
10275;SDS011;5183;51.190;6.820;2023-02-17T01:37:00;12.60;;;11.30;;
10275;SDS011;5183;51.190;6.820;2023-02-17T01:39:27;14.23;;;12.23;;
10275;SDS011;5183;51.190;6.820;2023-02-17T01:41:55;14.13;;;11.27;;
10275;SDS011;5183;51.190;6.820;2023-02-17T01:44:23;13.30;;;11.67;;
10275;SDS011;5183;51.190;6.820;2023-02-17T01:46:51;14.77;;;12.80;;
10275;SDS011;5183;51.190;6.820;2023-02-17T01:49:21;14.00;;;11.77;;
10275;SDS011;5183;51.190;6.820;2023-02-17T01:51:55;15.23;;;11.53;;
10275;SDS011;5183;51.190;6.820;2023-02-17T01:54:27;16.20;;;11.43;;
10275;SDS011;5183;51.190;6.820;2023-02-17T01:57:01;12.73;;;11.30;;
10275;SDS011;5183;51.190;6.820;2023-02-17T01:59:29;12.10;;;10.80;;
10275;SDS011;5183;51.190;6.820;2023-02-17T02:01:57;13.40;;;10.93;;
10275;SDS011;5183;51.190;6.820;2023-02-17T02:04:27;13.27;;;10.80;;
10275;SDS011;5183;51.190;6.820;2023-02-17T02:06:58;12.87;;;11.47;;
10275;SDS011;5183;51.190;6.820;2023-02-17T02:09:27;11.33;;;10.07;;
10275;SDS011;5183;51.190;6.820;2023-02-17T02:11:57;13.53;;;10.67;;
10275;SDS011;5183;51.190;6.820;2023-02-17T02:14:26;12.73;;;10.90;;
10275;SDS011;5183;51.190;6.820;2023-02-17T02:16:55;15.67;;;10.77;;
10275;SDS011;5183;51.190;6.820;2023-02-17T02:22:39;12.27;;;10.37;;
10275;SDS011;5183;51.190;6.820;2023-02-17T02:25:27;11.87;;;10.50;;
10275;SDS011;5183;51.190;6.820;2023-02-17T02:28:18;12.40;;;10.70;;
10275;SDS011;5183;51.190;6.820;2023-02-17T02:31:20;11.60;;;10.27;;
10275;SDS011;5183;51.190;6.820;2023-02-17T02:34:01;12.00;;;10.67;;
10275;SDS011;5183;51.190;6.820;2023-02-17T02:36:32;11.53;;;10.20;;
10275;SDS011;5183;51.190;6.820;2023-02-17T02:39:03;12.47;;;11.27;;
10275;SDS011;5183;51.190;6.820;2023-02-17T02:41:35;11.60;;;10.40;;
10275;SDS011;5183;51.190;6.820;2023-02-17T02:44:05;13.47;;;10.90;;
10275;SDS011;5183;51.190;6.820;2023-02-17T02:46:34;12.20;;;11.00;;
10275;SDS011;5183;51.190;6.820;2023-02-17T02:49:02;12.63;;;11.37;;
10275;SDS011;5183;51.190;6.820;2023-02-17T02:51:32;11.60;;;10.50;;
10275;SDS011;5183;51.190;6.820;2023-02-17T02:54:16;11.70;;;10.37;;
10275;SDS011;5183;51.190;6.820;2023-02-17T02:56:55;13.57;;;10.53;;
10275;SDS011;5183;51.190;6.820;2023-02-17T02:59:43;12.27;;;10.97;;
10275;SDS011;5183;51.190;6.820;2023-02-17T03:02:20;11.70;;;10.03;;
10275;SDS011;5183;51.190;6.820;2023-02-17T03:04:55;12.03;;;10.47;;
10275;SDS011;5183;51.190;6.820;2023-02-17T03:07:27;13.20;;;10.60;;
10275;SDS011;5183;51.190;6.820;2023-02-17T03:09:57;12.73;;;10.50;;
10275;SDS011;5183;51.190;6.820;2023-02-17T03:12:25;13.17;;;11.17;;
10275;SDS011;5183;51.190;6.820;2023-02-17T03:14:53;12.30;;;10.90;;
10275;SDS011;5183;51.190;6.820;2023-02-17T03:17:23;11.43;;;10.23;;
10275;SDS011;5183;51.190;6.820;2023-02-17T03:19:49;13.23;;;11.07;;
10275;SDS011;5183;51.190;6.820;2023-02-17T03:22:19;11.53;;;10.30;;
10275;SDS011;5183;51.190;6.820;2023-02-17T03:24:48;10.93;;;9.67;;
10275;SDS011;5183;51.190;6.820;2023-02-17T03:27:15;12.27;;;11.03;;
10275;SDS011;5183;51.190;6.820;2023-02-17T03:29:42;12.30;;;10.50;;
10275;SDS011;5183;51.190;6.820;2023-02-17T03:32:08;11.30;;;10.10;;
10275;SDS011;5183;51.190;6.820;2023-02-17T03:34:35;12.50;;;11.20;;
10275;SDS011;5183;51.190;6.820;2023-02-17T03:37:02;14.63;;;11.57;;
10275;SDS011;5183;51.190;6.820;2023-02-17T03:39:30;12.20;;;10.93;;
10275;SDS011;5183;51.190;6.820;2023-02-17T03:41:57;12.67;;;10.97;;
10275;SDS011;5183;51.190;6.820;2023-02-17T03:44:24;11.77;;;10.67;;
10275;SDS011;5183;51.190;6.820;2023-02-17T03:46:51;13.67;;;11.20;;
10275;SDS011;5183;51.190;6.820;2023-02-17T03:49:18;14.30;;;11.33;;
10275;SDS011;5183;51.190;6.820;2023-02-17T03:51:45;13.20;;;11.90;;
10275;SDS011;5183;51.190;6.820;2023-02-17T03:54:11;12.10;;;10.90;;
10275;SDS011;5183;51.190;6.820;2023-02-17T03:56:40;12.33;;;11.13;;
10275;SDS011;5183;51.190;6.820;2023-02-17T03:59:06;13.07;;;11.67;;
10275;SDS011;5183;51.190;6.820;2023-02-17T04:01:33;13.87;;;10.87;;
10275;SDS011;5183;51.190;6.820;2023-02-17T04:04:00;12.23;;;11.03;;
10275;SDS011;5183;51.190;6.820;2023-02-17T04:06:27;13.70;;;11.43;;
10275;SDS011;5183;51.190;6.820;2023-02-17T04:08:54;12.20;;;11.00;;
10275;SDS011;5183;51.190;6.820;2023-02-17T04:13:49;13.23;;;11.23;;
10275;SDS011;5183;51.190;6.820;2023-02-17T04:16:16;11.97;;;10.77;;
10275;SDS011;5183;51.190;6.820;2023-02-17T04:18:43;12.40;;;10.97;;
10275;SDS011;5183;51.190;6.820;2023-02-17T04:21:10;13.07;;;10.93;;
10275;SDS011;5183;51.190;6.820;2023-02-17T04:23:37;13.23;;;11.10;;
10275;SDS011;5183;51.190;6.820;2023-02-17T04:26:04;12.60;;;11.20;;
10275;SDS011;5183;51.190;6.820;2023-02-17T04:28:33;12.33;;;11.03;;
10275;SDS011;5183;51.190;6.820;2023-02-17T04:31:01;12.03;;;10.80;;
10275;SDS011;5183;51.190;6.820;2023-02-17T04:33:28;13.10;;;11.70;;
10275;SDS011;5183;51.190;6.820;2023-02-17T04:35:55;14.10;;;11.27;;
10275;SDS011;5183;51.190;6.820;2023-02-17T04:38:24;12.17;;;10.73;;
10275;SDS011;5183;51.190;6.820;2023-02-17T04:40:52;14.07;;;10.80;;
10275;SDS011;5183;51.190;6.820;2023-02-17T04:43:19;15.77;;;11.40;;
10275;SDS011;5183;51.190;6.820;2023-02-17T04:45:46;11.50;;;10.37;;
10275;SDS011;5183;51.190;6.820;2023-02-17T04:48:15;12.53;;;11.23;;
10275;SDS011;5183;51.190;6.820;2023-02-17T04:50:42;12.03;;;10.83;;
10275;SDS011;5183;51.190;6.820;2023-02-17T04:53:09;11.87;;;10.67;;
10275;SDS011;5183;51.190;6.820;2023-02-17T04:55:36;12.03;;;10.83;;
10275;SDS011;5183;51.190;6.820;2023-02-17T04:58:03;11.90;;;10.70;;
10275;SDS011;5183;51.190;6.820;2023-02-17T05:00:29;11.53;;;10.43;;
10275;SDS011;5183;51.190;6.820;2023-02-17T05:02:56;13.97;;;11.47;;
10275;SDS011;5183;51.190;6.820;2023-02-17T05:05:24;13.90;;;10.53;;
10275;SDS011;5183;51.190;6.820;2023-02-17T05:07:52;11.70;;;10.50;;
10275;SDS011;5183;51.190;6.820;2023-02-17T05:10:19;11.53;;;10.13;;
10275;SDS011;5183;51.190;6.820;2023-02-17T05:12:45;12.30;;;10.53;;
10275;SDS011;5183;51.190;6.820;2023-02-17T05:15:12;10.87;;;9.77;;
10275;SDS011;5183;51.190;6.820;2023-02-17T05:17:39;13.93;;;9.90;;
10275;SDS011;5183;51.190;6.820;2023-02-17T05:20:08;11.13;;;9.97;;
10275;SDS011;5183;51.190;6.820;2023-02-17T05:22:36;11.70;;;10.10;;
10275;SDS011;5183;51.190;6.820;2023-02-17T05:25:04;10.87;;;9.20;;
10275;SDS011;5183;51.190;6.820;2023-02-17T05:27:31;10.93;;;9.93;;
10275;SDS011;5183;51.190;6.820;2023-02-17T05:29:58;10.90;;;9.80;;
10275;SDS011;5183;51.190;6.820;2023-02-17T05:32:25;11.07;;;9.93;;
10275;SDS011;5183;51.190;6.820;2023-02-17T05:34:52;11.37;;;9.70;;
10275;SDS011;5183;51.190;6.820;2023-02-17T05:37:19;10.73;;;9.57;;
10275;SDS011;5183;51.190;6.820;2023-02-17T05:39:47;11.00;;;9.87;;
10275;SDS011;5183;51.190;6.820;2023-02-17T05:42:14;11.87;;;9.30;;
10275;SDS011;5183;51.190;6.820;2023-02-17T05:44:41;12.47;;;8.73;;
10275;SDS011;5183;51.190;6.820;2023-02-17T05:47:07;13.60;;;9.63;;
10275;SDS011;5183;51.190;6.820;2023-02-17T05:49:34;13.03;;;9.17;;
10275;SDS011;5183;51.190;6.820;2023-02-17T05:52:01;10.07;;;8.93;;
10275;SDS011;5183;51.190;6.820;2023-02-17T05:54:28;10.77;;;9.63;;
10275;SDS011;5183;51.190;6.820;2023-02-17T05:56:56;10.00;;;9.07;;
10275;SDS011;5183;51.190;6.820;2023-02-17T05:59:23;10.07;;;9.10;;
10275;SDS011;5183;51.190;6.820;2023-02-17T06:01:50;10.63;;;9.43;;
10275;SDS011;5183;51.190;6.820;2023-02-17T06:04:17;10.73;;;9.57;;
10275;SDS011;5183;51.190;6.820;2023-02-17T06:06:45;9.90;;;8.90;;
10275;SDS011;5183;51.190;6.820;2023-02-17T06:09:12;10.10;;;9.10;;
10275;SDS011;5183;51.190;6.820;2023-02-17T06:11:39;12.30;;;9.23;;
10275;SDS011;5183;51.190;6.820;2023-02-17T06:14:07;11.13;;;9.97;;
10275;SDS011;5183;51.190;6.820;2023-02-17T06:16:34;10.80;;;9.03;;
10275;SDS011;5183;51.190;6.820;2023-02-17T06:19:00;9.90;;;8.90;;
10275;SDS011;5183;51.190;6.820;2023-02-17T06:21:29;10.20;;;9.10;;
10275;SDS011;5183;51.190;6.820;2023-02-17T06:23:56;10.80;;;9.23;;
10275;SDS011;5183;51.190;6.820;2023-02-17T06:26:23;10.83;;;9.73;;
10275;SDS011;5183;51.190;6.820;2023-02-17T06:28:49;10.43;;;9.27;;
10275;SDS011;5183;51.190;6.820;2023-02-17T06:31:17;11.40;;;9.73;;
10275;SDS011;5183;51.190;6.820;2023-02-17T06:33:44;11.03;;;9.70;;
10275;SDS011;5183;51.190;6.820;2023-02-17T06:36:11;12.70;;;10.23;;
10275;SDS011;5183;51.190;6.820;2023-02-17T06:38:38;11.03;;;9.87;;
10275;SDS011;5183;51.190;6.820;2023-02-17T06:41:05;11.57;;;9.40;;
10275;SDS011;5183;51.190;6.820;2023-02-17T06:43:32;13.77;;;10.47;;
10275;SDS011;5183;51.190;6.820;2023-02-17T06:45:59;11.93;;;10.00;;
10275;SDS011;5183;51.190;6.820;2023-02-17T06:48:27;11.80;;;9.87;;
10275;SDS011;5183;51.190;6.820;2023-02-17T06:50:57;14.23;;;9.83;;
10275;SDS011;5183;51.190;6.820;2023-02-17T06:53:24;15.00;;;9.77;;
10275;SDS011;5183;51.190;6.820;2023-02-17T06:55:50;11.03;;;9.70;;
10275;SDS011;5183;51.190;6.820;2023-02-17T06:58:17;12.87;;;9.80;;
10275;SDS011;5183;51.190;6.820;2023-02-17T07:00:47;12.80;;;10.07;;
10275;SDS011;5183;51.190;6.820;2023-02-17T07:03:14;11.77;;;9.93;;
10275;SDS011;5183;51.190;6.820;2023-02-17T07:05:42;14.13;;;10.80;;
10275;SDS011;5183;51.190;6.820;2023-02-17T07:08:09;13.67;;;11.10;;
10275;SDS011;5183;51.190;6.820;2023-02-17T07:10:35;13.73;;;11.80;;
10275;SDS011;5183;51.190;6.820;2023-02-17T07:13:03;13.60;;;11.37;;
10275;SDS011;5183;51.190;6.820;2023-02-17T07:15:29;16.13;;;11.37;;
10275;SDS011;5183;51.190;6.820;2023-02-17T07:17:56;14.67;;;11.63;;
10275;SDS011;5183;51.190;6.820;2023-02-17T07:20:23;12.43;;;11.13;;
10275;SDS011;5183;51.190;6.820;2023-02-17T07:22:51;13.07;;;10.80;;
10275;SDS011;5183;51.190;6.820;2023-02-17T07:25:18;14.07;;;11.13;;
10275;SDS011;5183;51.190;6.820;2023-02-17T07:27:45;13.00;;;10.80;;
10275;SDS011;5183;51.190;6.820;2023-02-17T07:30:13;11.70;;;10.53;;
10275;SDS011;5183;51.190;6.820;2023-02-17T07:32:40;13.97;;;10.47;;
10275;SDS011;5183;51.190;6.820;2023-02-17T07:35:07;11.47;;;10.27;;
10275;SDS011;5183;51.190;6.820;2023-02-17T07:37:34;14.33;;;10.30;;
10275;SDS011;5183;51.190;6.820;2023-02-17T07:40:03;13.17;;;10.37;;
10275;SDS011;5183;51.190;6.820;2023-02-17T07:42:31;10.80;;;9.70;;
10275;SDS011;5183;51.190;6.820;2023-02-17T07:44:58;10.70;;;9.60;;
10275;SDS011;5183;51.190;6.820;2023-02-17T07:47:24;11.40;;;10.10;;
10275;SDS011;5183;51.190;6.820;2023-02-17T07:49:51;15.00;;;9.50;;
10275;SDS011;5183;51.190;6.820;2023-02-17T07:52:18;11.93;;;10.10;;
10275;SDS011;5183;51.190;6.820;2023-02-17T07:54:45;10.50;;;9.40;;
10275;SDS011;5183;51.190;6.820;2023-02-17T07:57:13;10.80;;;9.70;;
10275;SDS011;5183;51.190;6.820;2023-02-17T07:59:40;10.57;;;8.60;;
10275;SDS011;5183;51.190;6.820;2023-02-17T08:02:08;13.03;;;9.03;;
10275;SDS011;5183;51.190;6.820;2023-02-17T08:04:36;10.20;;;9.20;;
10275;SDS011;5183;51.190;6.820;2023-02-17T08:07:03;10.13;;;9.07;;
10275;SDS011;5183;51.190;6.820;2023-02-17T08:09:30;10.13;;;8.97;;
10275;SDS011;5183;51.190;6.820;2023-02-17T08:12:16;9.70;;;8.80;;
10275;SDS011;5183;51.190;6.820;2023-02-17T08:15:02;11.00;;;9.43;;
10275;SDS011;5183;51.190;6.820;2023-02-17T08:17:31;10.57;;;9.43;;
10275;SDS011;5183;51.190;6.820;2023-02-17T08:19:58;11.10;;;8.87;;
10275;SDS011;5183;51.190;6.820;2023-02-17T08:22:25;11.20;;;9.13;;
10275;SDS011;5183;51.190;6.820;2023-02-17T08:24:52;11.90;;;9.33;;
10275;SDS011;5183;51.190;6.820;2023-02-17T08:27:20;11.90;;;9.13;;
10275;SDS011;5183;51.190;6.820;2023-02-17T08:29:47;11.50;;;9.53;;
10275;SDS011;5183;51.190;6.820;2023-02-17T08:32:15;12.73;;;9.67;;
10275;SDS011;5183;51.190;6.820;2023-02-17T08:34:43;11.17;;;8.50;;
10275;SDS011;5183;51.190;6.820;2023-02-17T08:37:10;11.83;;;9.23;;
10275;SDS011;5183;51.190;6.820;2023-02-17T08:39:37;11.87;;;8.43;;
10275;SDS011;5183;51.190;6.820;2023-02-17T08:42:04;13.73;;;8.70;;
10275;SDS011;5183;51.190;6.820;2023-02-17T08:44:34;12.40;;;8.47;;
10275;SDS011;5183;51.190;6.820;2023-02-17T08:47:02;10.90;;;8.43;;
10275;SDS011;5183;51.190;6.820;2023-02-17T08:49:30;10.00;;;8.50;;
10275;SDS011;5183;51.190;6.820;2023-02-17T08:51:57;12.10;;;8.93;;
10275;SDS011;5183;51.190;6.820;2023-02-17T08:54:24;13.67;;;8.57;;
10275;SDS011;5183;51.190;6.820;2023-02-17T08:56:51;9.20;;;8.13;;
10275;SDS011;5183;51.190;6.820;2023-02-17T08:59:18;9.50;;;8.23;;
10275;SDS011;5183;51.190;6.820;2023-02-17T09:01:46;10.57;;;8.20;;
10275;SDS011;5183;51.190;6.820;2023-02-17T09:04:14;11.13;;;8.03;;
10275;SDS011;5183;51.190;6.820;2023-02-17T09:06:42;10.77;;;7.60;;
10275;SDS011;5183;51.190;6.820;2023-02-17T09:09:11;11.73;;;7.73;;
10275;SDS011;5183;51.190;6.820;2023-02-17T09:11:39;9.70;;;7.87;;
10275;SDS011;5183;51.190;6.820;2023-02-17T09:14:06;8.07;;;7.13;;
10275;SDS011;5183;51.190;6.820;2023-02-17T09:16:34;10.37;;;7.33;;
10275;SDS011;5183;51.190;6.820;2023-02-17T09:19:02;9.40;;;7.00;;
10275;SDS011;5183;51.190;6.820;2023-02-17T09:21:29;8.00;;;7.20;;
10275;SDS011;5183;51.190;6.820;2023-02-17T09:23:56;9.47;;;6.90;;
10275;SDS011;5183;51.190;6.820;2023-02-17T09:26:23;8.40;;;7.10;;
10275;SDS011;5183;51.190;6.820;2023-02-17T09:28:50;9.00;;;7.17;;
10275;SDS011;5183;51.190;6.820;2023-02-17T09:31:18;7.87;;;7.07;;
10275;SDS011;5183;51.190;6.820;2023-02-17T09:33:46;8.63;;;7.30;;
10275;SDS011;5183;51.190;6.820;2023-02-17T09:36:16;7.00;;;6.30;;
10275;SDS011;5183;51.190;6.820;2023-02-17T09:38:44;11.53;;;7.17;;
10275;SDS011;5183;51.190;6.820;2023-02-17T09:41:14;9.47;;;6.20;;
10275;SDS011;5183;51.190;6.820;2023-02-17T09:43:43;8.80;;;6.30;;
10275;SDS011;5183;51.190;6.820;2023-02-17T09:46:11;10.90;;;6.30;;
10275;SDS011;5183;51.190;6.820;2023-02-17T09:48:43;8.23;;;6.07;;
10275;SDS011;5183;51.190;6.820;2023-02-17T09:51:15;9.17;;;6.30;;
10275;SDS011;5183;51.190;6.820;2023-02-17T09:53:49;7.13;;;6.43;;
10275;SDS011;5183;51.190;6.820;2023-02-17T09:56:21;9.80;;;6.47;;
10275;SDS011;5183;51.190;6.820;2023-02-17T09:58:51;10.37;;;6.40;;
10275;SDS011;5183;51.190;6.820;2023-02-17T10:01:21;9.97;;;6.23;;
10275;SDS011;5183;51.190;6.820;2023-02-17T10:03:54;8.00;;;6.13;;
10275;SDS011;5183;51.190;6.820;2023-02-17T10:06:27;8.33;;;5.93;;
10275;SDS011;5183;51.190;6.820;2023-02-17T10:08:58;9.13;;;6.50;;
10275;SDS011;5183;51.190;6.820;2023-02-17T10:11:29;9.67;;;5.40;;
10275;SDS011;5183;51.190;6.820;2023-02-17T10:14:12;11.10;;;5.47;;
10275;SDS011;5183;51.190;6.820;2023-02-17T10:16:44;9.83;;;5.83;;
10275;SDS011;5183;51.190;6.820;2023-02-17T10:19:15;10.60;;;6.00;;
10275;SDS011;5183;51.190;6.820;2023-02-17T10:21:49;9.80;;;5.63;;
10275;SDS011;5183;51.190;6.820;2023-02-17T10:24:24;10.10;;;5.57;;
10275;SDS011;5183;51.190;6.820;2023-02-17T10:26:56;11.23;;;5.40;;
10275;SDS011;5183;51.190;6.820;2023-02-17T10:29:33;9.03;;;5.60;;
10275;SDS011;5183;51.190;6.820;2023-02-17T10:32:19;9.37;;;5.50;;
10275;SDS011;5183;51.190;6.820;2023-02-17T10:34:52;9.83;;;5.83;;
10275;SDS011;5183;51.190;6.820;2023-02-17T10:37:39;12.70;;;6.00;;
10275;SDS011;5183;51.190;6.820;2023-02-17T10:40:13;11.03;;;5.67;;
10275;SDS011;5183;51.190;6.820;2023-02-17T10:42:43;10.37;;;5.67;;
10275;SDS011;5183;51.190;6.820;2023-02-17T10:45:14;13.37;;;5.40;;
10275;SDS011;5183;51.190;6.820;2023-02-17T10:47:48;11.53;;;5.10;;
10275;SDS011;5183;51.190;6.820;2023-02-17T10:50:21;10.87;;;5.57;;
10275;SDS011;5183;51.190;6.820;2023-02-17T10:52:51;9.23;;;5.17;;
10275;SDS011;5183;51.190;6.820;2023-02-17T10:55:22;11.80;;;5.30;;
10275;SDS011;5183;51.190;6.820;2023-02-17T10:57:57;8.27;;;5.53;;
10275;SDS011;5183;51.190;6.820;2023-02-17T11:00:30;11.20;;;5.50;;
10275;SDS011;5183;51.190;6.820;2023-02-17T11:02:57;6.83;;;4.93;;
10275;SDS011;5183;51.190;6.820;2023-02-17T11:05:25;10.47;;;5.70;;
10275;SDS011;5183;51.190;6.820;2023-02-17T11:07:55;11.57;;;5.70;;
10275;SDS011;5183;51.190;6.820;2023-02-17T11:10:25;7.87;;;5.30;;
10275;SDS011;5183;51.190;6.820;2023-02-17T11:12:54;6.77;;;5.53;;
10275;SDS011;5183;51.190;6.820;2023-02-17T11:15:23;8.20;;;5.33;;
10275;SDS011;5183;51.190;6.820;2023-02-17T11:17:53;7.00;;;6.00;;
10275;SDS011;5183;51.190;6.820;2023-02-17T11:20:29;7.23;;;5.03;;
10275;SDS011;5183;51.190;6.820;2023-02-17T11:23:00;6.40;;;5.20;;
10275;SDS011;5183;51.190;6.820;2023-02-17T11:25:32;6.00;;;4.93;;
10275;SDS011;5183;51.190;6.820;2023-02-17T11:28:03;5.67;;;5.07;;
10275;SDS011;5183;51.190;6.820;2023-02-17T11:30:33;6.10;;;4.83;;
10275;SDS011;5183;51.190;6.820;2023-02-17T11:33:09;5.93;;;5.20;;
10275;SDS011;5183;51.190;6.820;2023-02-17T11:35:43;6.37;;;5.27;;
10275;SDS011;5183;51.190;6.820;2023-02-17T11:38:16;6.20;;;4.80;;
10275;SDS011;5183;51.190;6.820;2023-02-17T11:40:50;5.50;;;4.90;;
10275;SDS011;5183;51.190;6.820;2023-02-17T11:43:20;5.40;;;4.90;;
10275;SDS011;5183;51.190;6.820;2023-02-17T11:45:50;6.00;;;5.40;;
10275;SDS011;5183;51.190;6.820;2023-02-17T11:48:31;6.67;;;5.07;;
10275;SDS011;5183;51.190;6.820;2023-02-17T11:51:09;7.75;;;5.05;;
10275;SDS011;5183;51.190;6.820;2023-02-17T11:53:47;4.90;;;4.20;;
10275;SDS011;5183;51.190;6.820;2023-02-17T11:56:27;4.97;;;4.57;;
10275;SDS011;5183;51.190;6.820;2023-02-17T11:59:09;6.53;;;5.43;;
10275;SDS011;5183;51.190;6.820;2023-02-17T12:01:56;6.13;;;4.60;;
10275;SDS011;5183;51.190;6.820;2023-02-17T12:04:51;5.87;;;4.33;;
10275;SDS011;5183;51.190;6.820;2023-02-17T12:07:34;5.70;;;4.60;;
10275;SDS011;5183;51.190;6.820;2023-02-17T12:10:12;6.77;;;5.13;;
10275;SDS011;5183;51.190;6.820;2023-02-17T12:12:52;6.10;;;4.90;;
10275;SDS011;5183;51.190;6.820;2023-02-17T12:15:35;5.03;;;4.50;;
10275;SDS011;5183;51.190;6.820;2023-02-17T12:18:12;5.67;;;4.50;;
10275;SDS011;5183;51.190;6.820;2023-02-17T12:20:49;5.27;;;4.23;;
10275;SDS011;5183;51.190;6.820;2023-02-17T12:23:26;4.67;;;4.27;;
10275;SDS011;5183;51.190;6.820;2023-02-17T12:26:05;6.07;;;4.40;;
10275;SDS011;5183;51.190;6.820;2023-02-17T12:28:45;8.00;;;4.20;;
10275;SDS011;5183;51.190;6.820;2023-02-17T12:31:25;5.17;;;4.27;;
10275;SDS011;5183;51.190;6.820;2023-02-17T12:34:16;5.10;;;4.60;;
10275;SDS011;5183;51.190;6.820;2023-02-17T12:36:46;5.07;;;4.10;;
10275;SDS011;5183;51.190;6.820;2023-02-17T12:39:16;5.27;;;3.90;;
10275;SDS011;5183;51.190;6.820;2023-02-17T12:41:47;6.43;;;4.20;;
10275;SDS011;5183;51.190;6.820;2023-02-17T12:44:18;4.57;;;3.90;;
10275;SDS011;5183;51.190;6.820;2023-02-17T12:46:49;5.13;;;3.80;;
10275;SDS011;5183;51.190;6.820;2023-02-17T12:49:22;6.00;;;4.03;;
10275;SDS011;5183;51.190;6.820;2023-02-17T12:51:56;4.60;;;3.37;;
10275;SDS011;5183;51.190;6.820;2023-02-17T12:54:27;6.93;;;3.70;;
10275;SDS011;5183;51.190;6.820;2023-02-17T12:57:01;4.07;;;3.40;;
10275;SDS011;5183;51.190;6.820;2023-02-17T12:59:36;3.23;;;2.93;;
10275;SDS011;5183;51.190;6.820;2023-02-17T13:02:05;4.67;;;3.63;;
10275;SDS011;5183;51.190;6.820;2023-02-17T13:04:35;11.20;;;3.50;;
10275;SDS011;5183;51.190;6.820;2023-02-17T13:09:59;7.90;;;3.40;;
10275;SDS011;5183;51.190;6.820;2023-02-17T13:12:36;4.47;;;3.17;;
10275;SDS011;5183;51.190;6.820;2023-02-17T13:15:06;3.63;;;3.30;;
10275;SDS011;5183;51.190;6.820;2023-02-17T13:17:53;3.87;;;3.40;;
10275;SDS011;5183;51.190;6.820;2023-02-17T13:23:27;4.90;;;2.90;;
10275;SDS011;5183;51.190;6.820;2023-02-17T13:26:12;4.30;;;3.73;;
10275;SDS011;5183;51.190;6.820;2023-02-17T13:28:50;3.63;;;3.23;;
10275;SDS011;5183;51.190;6.820;2023-02-17T13:31:19;5.00;;;3.40;;
10275;SDS011;5183;51.190;6.820;2023-02-17T13:33:48;5.57;;;3.77;;
10275;SDS011;5183;51.190;6.820;2023-02-17T13:36:18;6.77;;;3.87;;
10275;SDS011;5183;51.190;6.820;2023-02-17T13:38:52;4.93;;;3.80;;
10275;SDS011;5183;51.190;6.820;2023-02-17T13:41:26;4.00;;;3.60;;
10275;SDS011;5183;51.190;6.820;2023-02-17T13:43:55;4.70;;;3.60;;
10275;SDS011;5183;51.190;6.820;2023-02-17T13:46:22;4.10;;;3.60;;
10275;SDS011;5183;51.190;6.820;2023-02-17T13:48:59;5.73;;;3.60;;
10275;SDS011;5183;51.190;6.820;2023-02-17T13:51:27;5.60;;;3.70;;
10275;SDS011;5183;51.190;6.820;2023-02-17T13:53:56;4.83;;;3.90;;
10275;SDS011;5183;51.190;6.820;2023-02-17T13:56:30;4.53;;;3.73;;
10275;SDS011;5183;51.190;6.820;2023-02-17T13:59:06;4.57;;;3.80;;
10275;SDS011;5183;51.190;6.820;2023-02-17T14:01:35;4.93;;;3.50;;
10275;SDS011;5183;51.190;6.820;2023-02-17T14:04:03;4.77;;;3.60;;
10275;SDS011;5183;51.190;6.820;2023-02-17T14:06:42;5.30;;;3.63;;
10275;SDS011;5183;51.190;6.820;2023-02-17T14:09:13;6.40;;;3.83;;
10275;SDS011;5183;51.190;6.820;2023-02-17T14:11:48;4.87;;;3.63;;
10275;SDS011;5183;51.190;6.820;2023-02-17T14:14:17;4.10;;;3.70;;
10275;SDS011;5183;51.190;6.820;2023-02-17T14:16:54;4.67;;;3.63;;
10275;SDS011;5183;51.190;6.820;2023-02-17T14:19:25;5.33;;;3.20;;
10275;SDS011;5183;51.190;6.820;2023-02-17T14:21:56;5.70;;;3.13;;
10275;SDS011;5183;51.190;6.820;2023-02-17T14:24:25;4.00;;;3.00;;
10275;SDS011;5183;51.190;6.820;2023-02-17T14:26:55;2.60;;;2.30;;
10275;SDS011;5183;51.190;6.820;2023-02-17T14:29:25;3.17;;;2.50;;
10275;SDS011;5183;51.190;6.820;2023-02-17T14:32:02;3.70;;;2.30;;
10275;SDS011;5183;51.190;6.820;2023-02-17T14:34:30;2.90;;;2.60;;
10275;SDS011;5183;51.190;6.820;2023-02-17T14:37:06;6.60;;;2.23;;
10275;SDS011;5183;51.190;6.820;2023-02-17T14:39:33;2.67;;;2.10;;
10275;SDS011;5183;51.190;6.820;2023-02-17T14:42:00;3.03;;;1.90;;
10275;SDS011;5183;51.190;6.820;2023-02-17T14:44:28;3.13;;;1.80;;
10275;SDS011;5183;51.190;6.820;2023-02-17T14:46:55;3.00;;;2.10;;
10275;SDS011;5183;51.190;6.820;2023-02-17T14:49:22;2.33;;;1.97;;
10275;SDS011;5183;51.190;6.820;2023-02-17T14:51:49;2.63;;;1.83;;
10275;SDS011;5183;51.190;6.820;2023-02-17T14:54:16;2.97;;;2.00;;
10275;SDS011;5183;51.190;6.820;2023-02-17T14:56:44;7.73;;;2.27;;
10275;SDS011;5183;51.190;6.820;2023-02-17T14:59:14;4.10;;;2.13;;
10275;SDS011;5183;51.190;6.820;2023-02-17T15:01:42;3.10;;;2.37;;
10275;SDS011;5183;51.190;6.820;2023-02-17T15:04:09;2.40;;;2.07;;
10275;SDS011;5183;51.190;6.820;2023-02-17T15:06:38;5.27;;;2.30;;
10275;SDS011;5183;51.190;6.820;2023-02-17T15:09:08;3.10;;;1.80;;
10275;SDS011;5183;51.190;6.820;2023-02-17T15:11:37;2.67;;;1.77;;
10275;SDS011;5183;51.190;6.820;2023-02-17T15:14:09;2.93;;;1.80;;
10275;SDS011;5183;51.190;6.820;2023-02-17T15:16:38;2.07;;;1.70;;